Station: Quirindi  

  Atmospheric Gas Attenuation - ITU Rec 676-11   ----------------- dB/100km -----------------
Date Time Temp RH % AH g/m3 Dew Point Wind Direction Speed kph Gust kph Barometer mB Rainfall Since 9am 24GHz 47GHz 76GHz 122GHz 134GHz 241GHz
08/05 09:00 6.5 81 6.08 3.5 0 1013.1 0 14.5 23.8 33.0 86.3 73.1 249.0
07/05 09:00 10.5 87 8.44 8.5 0 1013.1 0 19.4 26.6 40.8 107.1 100.5 345.3
06/05 09:00 13.1 83 9.47 10.3 0 1013.1 0.2 21.5 27.5 43.7 114.9 111.1 382.7
05/05 09:00 16.8 88 12.58 14.8 0 1013.1 17 27.9 31.7 54.8 144.5 148.8 514.8
04/05 09:00 18.3 76 11.88 14 0 1013.1 0 26.3 29.9 50.7 133.7 136.0 470.6
01/05 09:00 16.8 72 10.29 11.8 0 1013.1 0 23.0 27.7 45.0 118.5 116.8 403.1
30/04 09:00 17.8 76 11.53 13.5 0 1013.1 0 25.6 29.5 49.6 130.6 132.0 456.6
29/04 09:00 16.6 77 10.88 12.5 0 1013.1 0 24.3 28.8 47.6 125.3 125.1 432.2
28/04 09:00 15.5 72 9.52 10.5 0 1013.1 0 21.5 26.9 42.6 112.0 108.3 373.5
24/04 09:00 14 78 9.41 10.2 0 1013.1 0 21.3 27.2 43.0 113.0 109.0 375.5
23/04 09:00 15.7 77 10.3 11.7 11 1013.1 0 23.1 28.1 45.7 120.3 118.6 409.3
22/04 09:00 17.5 70 10.44 12 11 1013.1 0 23.3 27.8 45.2 119.0 117.7 406.5
20/04 09:00 14 66 7.96 7.9 6 1013.1 0 18.2 24.8 37.2 97.4 89.8 308.4
10/04 09:00 25.2 50 11.64 14.1 0 1013.1 0 25.4 27.3 45.6 120.0 121.4 420.4
09/04 09:00 21.5 41 7.73 7.7 0 1013.1 0 17.4 22.5 33.1 86.6 79.0 271.5
08/04 09:00 21.9 48 9.26 10.4 0 1013.1 0 20.6 24.6 38.4 100.8 96.7 333.4
07/04 09:00 21.5 57 10.75 12.7 0 1013.1 0 23.8 27.0 44.2 116.4 115.8 400.2
31/03 09:00 16 72 9.81 10.9 4 1013.1 0 22.1 27.2 43.5 114.4 111.5 384.6
30/03 09:00 16.1 74 10.14 11.6 4 1013.1 0 22.8 27.7 44.8 117.9 115.8 399.6
20/03 09:00 19.8 83 14.18 16.9 0 1013.1 2 31.2 33.4 59.7 157.5 165.8 574.7
19/03 09:00 20.4 89 15.74 18.5 0 1013.1 0.6 34.4 36.0 66.3 175.1 187.6 650.6
17/03 09:00 21.3 97 18.08 20.8 0 1013.1 0 39.4 40.0 76.5 202.4 221.4 768.6
16/03 09:00 19.4 60 10.01 11.6 0 1013.1 0 22.3 26.5 42.5 111.7 109.3 377.3
12/03 09:00 26 54 13.15 16.2 0 1013.1 0 28.5 29.4 51.0 134.4 139.3 483.1
06/03 09:00 26.9 59 15.1 18.4 2 1013.1 0 32.5 32.3 58.2 153.8 163.4 567.3
05/03 09:00 23.6 74 15.74 18.8 4 1013.1 0 34.2 34.7 63.5 167.9 179.8 623.9
03/03 09:00 26 53 12.9 15.7 9 1013.1 0 28.0 29.0 50.0 131.8 136.1 471.8
02/03 09:00 22 66 12.81 15.4 6 1013.1 0 28.1 30.2 52.2 137.6 142.1 492.2
27/02 09:00 23.9 59 12.76 15.4 15 1013.1 0 27.8 29.5 50.8 133.8 138.0 478.1
23/02 09:00 27.4 48 12.63 15.7 9 1013.1 0 27.3 28.1 48.1 126.7 130.3 451.7
20/02 09:00 29 51 14.65 18 0 1013.1 4 31.4 30.8 54.9 144.9 153.1 531.7
19/02 09:00 28 53 14.41 17.7 0 1013.1 0.5 31.0 30.8 54.6 144.2 152.0 527.5
17/02 09:00 21.1 58 10.69 12.6 4 1013.1 0 23.6 27.1 44.2 116.3 115.6 399.5
12/02 09:00 28 56 15.23 18.5 9 1013.1 0 32.7 32.1 57.9 153.0 162.8 565.4
11/02 09:00 25.9 61 14.77 17.8 0 1013.1 0 31.9 32.1 57.6 152.1 161.0 558.9
06/02 09:00 30.7 39 12.28 15.2 4 1013.1 0 26.4 26.6 44.9 118.2 120.8 418.9
30/01 09:00 23.4 66 13.88 16.7 4 1013.1 0 30.2 31.5 55.7 147.0 154.0 534.0
29/01 09:00 24 56 12.18 14.7 7 1013.1 0 26.6 28.5 48.4 127.5 130.2 451.1
22/01 09:00 25.9 42 10.17 12.2 7 1013.1 0 22.3 24.9 39.8 104.5 102.5 354.5
07/01 09:00 26.8 56 14.25 17.4 4 1013.1 0 30.8 30.9 54.8 144.7 152.2 528.3
03/01 09:00 23.9 54 11.68 14.2 6 1013.1 0 25.6 27.8 46.5 122.4 124.0 429.2
02/01 09:00 23.5 52 11 13.3 9 1013.1 0 24.2 26.8 44.1 116.0 116.0 401.2
01/01 09:00 24.1 53 11.6 14.1 6 1013.1 0 25.4 27.6 46.1 121.3 122.6 424.5
31/12 09:00 26.9 31 7.93 8.7 2 1013.1 0 17.6 21.5 31.6 82.8 76.1 261.8
22/12 09:00 25.9 70 16.95 20 17 1013.1 0 36.5 35.9 66.9 177.0 191.6 665.5
05/12 09:00 26.8 39 9.93 11.7 9 1013.1 0 21.7 24.3 38.5 101.1 98.6 340.8
18/11 09:00 17.9 60 9.16 10.2 0 1013.1 0 20.6 25.6 39.9 104.9 100.4 346.1
17/11 09:00 21 90 16.49 19.4 9 1013.1 0 36.0 37.1 69.2 182.9 197.4 685.1
10/11 09:00 17.5 49 7.3 6.9 9 1013.1 4 16.7 22.9 33.2 86.7 77.9 267.1
07/11 09:00 22.3 56 11.06 13.1 0 1013.1 0 24.4 27.3 45.0 118.4 118.5 410.0
06/11 09:00 20.2 45 7.87 8.1 0 1013.1 0 17.8 23.0 34.1 89.3 82.0 281.7
05/11 09:00 16 41 5.59 2.8 0 1013.1 0 13.1 20.8 27.7 72.0 59.2 201.3
04/11 09:00 15.8 76 10.23 11.6 15 1013.1 4 23.0 28.0 45.4 119.3 117.5 405.4
31/10 09:00 22.4 59 11.72 14 0 1013.1 0 25.7 28.3 47.5 125.2 126.9 439.2
30/10 09:00 18.8 65 10.47 12.1 0 1013.1 0 23.3 27.4 44.6 117.4 116.1 401.2
29/10 09:00 15.1 88 11.35 13.2 0 1013.1 26 25.4 30.1 50.6 133.1 134.2 463.9
28/10 09:00 14.3 98 12.04 14 15 1013.1 0 27.0 31.6 54.1 142.7 145.7 503.9
23/10 09:00 21.6 42 7.97 8.3 9 1013.1 0 17.9 22.8 33.9 88.7 81.7 280.9
22/10 09:00 29.2 42 12.2 15.2 19 1013.1 0 26.3 26.9 45.4 119.7 122.1 423.4
21/10 09:00 25.8 60 14.45 17.6 0 1013.1 0 31.3 31.6 56.3 148.7 156.9 544.4
20/10 09:00 22.5 57 11.38 13.7 0 1013.1 0 25.0 27.7 46.1 121.4 122.3 423.3
17/10 09:00 21.7 66 12.59 15.2 9 1013.1 4 27.6 29.9 51.5 135.7 139.6 483.7
15/10 09:00 17.4 57 8.45 8.9 0 1013.1 0 19.1 24.6 37.5 98.3 92.1 316.8
14/10 09:00 16.4 61 8.51 9 0 1013.1 0 19.3 25.0 38.2 100.1 94.0 323.5
13/10 09:00 18 45 6.91 6 9 1013.1 0 15.8 22.2 31.6 82.5 72.8 249.3
10/10 09:00 18.8 84 13.53 16 1013.1 1 29.8 32.6 57.5 151.8 158.5 549.0
08/10 09:00 20.6 73 13.06 15.6 4 1013.1 0 28.7 31.1 54.2 143.0 148.2 513.3
03/10 09:00 16 66 8.99 9.8 6 1013.1 0 20.3 25.9 40.2 105.7 100.7 346.8
24/09 09:00 13.1 61 6.96 5.8 6 1013.1 0 16.1 23.5 33.7 88.2 78.1 267.2
18/09 09:00 14.6 58 7.26 6.5 0 1013.1 0 16.7 23.6 34.2 89.5 80.3 275.2
17/09 09:00 20.8 58 10.5 12.2 7 1013.1 0.3 23.3 26.9 43.6 114.8 113.6 392.5
16/09 09:00 16.6 69 9.75 10.9 7 1013.1 0 21.9 26.9 43.0 112.9 109.8 378.9
12/09 09:00 13 75 8.51 8.7 0 1013.1 1 19.4 26.0 39.8 104.5 98.2 337.7
11/09 09:00 9.8 83 7.7 7.1 15 1013.1 7 17.8 25.6 38.1 99.9 91.3 313.0
10/09 09:00 15.3 97 12.67 14.8 0 1013.1 11 28.2 32.4 56.3 148.4 153.1 529.7
09/09 09:00 17.4 81 12 14.1 0 1013.1 0 26.7 30.4 51.8 136.6 139.3 482.0
08/09 09:00 16.4 65 9.07 9.9 0 1013.1 0 20.5 25.9 40.3 106.0 101.2 348.6
22/08 09:00 10.8 86 8.5 8.6 0 1013.1 4 19.5 26.6 40.9 107.4 100.9 346.9
21/08 09:00 10.4 95 9.16 9.6 9 1013.1 49 21.0 27.9 43.9 115.4 110.7 380.9
16/08 09:00 9.9 81 7.56 6.8 9 1013.1 0 17.5 25.3 37.5 98.2 89.3 306.0
12/08 09:00 9.3 90 8.09 7.7 4 1013.1 0 18.7 26.4 40.0 104.9 97.2 333.7
11/08 09:00 9.2 88 7.86 7.3 0 1013.1 0 18.2 26.0 39.1 102.4 94.2 323.1
08/08 09:00 12.2 85 9.17 9.7 0 1013.1 0 20.9 27.3 43.0 112.9 108.2 372.6
07/08 09:00 7.8 82 6.7 4.9 6 1013.1 0 15.8 24.5 35.0 91.5 80.1 273.5
05/08 09:00 9.5 92 8.38 8.3 2 1013.1 0 19.3 26.8 41.1 107.9 101.0 346.9
30/07 09:00 9 92 8.11 7.8 0 1013.1 3 18.8 26.5 40.2 105.5 97.9 336.0
29/07 09:00 9.6 73 6.69 5 0 1013.1 0 15.7 24.0 34.1 89.3 78.1 266.9
21/07 09:00 11.4 77 7.9 7.6 0 1013.1 0 18.2 25.4 38.1 100.0 92.1 316.0
14/07 09:00 5.4 86 6 3.3 0 1013.1 0 14.4 24.0 33.1 86.6 73.1 248.7
10/07 09:00 11.3 61 6.22 4.1 17 1013.1 0 14.6 22.8 31.6 82.6 70.5 240.5
09/07 09:00 6.4 85 6.34 4.1 6 1013.1 0 15.1 24.3 34.1 89.2 76.7 261.4
08/07 09:00 5.4 93 6.49 4.3 6 1013.1 0 15.4 24.8 35.2 92.0 79.7 271.9
05/07 09:00 6.9 93 7.16 5.8 2 1013.1 0 16.8 25.5 37.3 97.6 87.3 298.6
02/07 09:00 8.4 84 7.13 5.8 9 1013.1 10 16.7 25.0 36.4 95.4 85.2 291.5
30/06 09:00 3.5 99 6.09 3.3 4 1013.1 0 14.6 24.7 34.3 89.8 76.2 259.2
27/06 09:00 2.7 93 5.42 1.7 2 1013.1 0 13.2 23.8 31.9 83.2 67.8 229.6
20/06 09:00 3.1 90 5.39 1.6 0 1013.1 0 13.1 23.6 31.6 82.5 67.0 227.0
19/06 09:00 2.5 90 5.18 1 0 1013.1 0 12.7 23.4 31.0 80.8 64.7 218.8
18/06 09:00 2.1 93 5.21 1.1 4 1013.1 0 12.8 23.6 31.3 81.6 65.4 221.3
13/06 09:00 6.4 87 6.49 4.4 0 1013.1 0 15.4 24.5 34.7 90.8 78.7 268.5

Last Refresh: 08-May-2026 12:09:35

Bureau of Meteorology